Time,TemperatureF,DewpointF,PressureIn,WindDirection,WindDirectionDegrees,WindSpeedMPH,WindSpeedGustMPH,Humidity,HourlyPrecipIn,Conditions,Clouds,dailyrainin,SolarRadiationWatts/m^2,SoftwareType,DateUTC
2013-02-17 00:02:00,49.0,24.0,-100.00,NNW,331,18.0,-999.0,36,0.00,,,-99.99,0.000000,,2013-02-17 05:02:00,
2013-02-17 00:12:00,48.0,24.0,-100.00,NW,317,13.0,-999.0,39,0.00,,,-99.99,0.000000,,2013-02-17 05:12:00,
2013-02-17 00:22:00,48.0,24.0,-100.00,NW,317,13.0,-999.0,39,0.00,,,-99.99,0.000000,,2013-02-17 05:22:00,
2013-02-17 00:33:00,47.0,25.0,-100.00,NW,323,12.0,-999.0,42,0.00,,,-99.99,0.000000,,2013-02-17 05:33:00,
2013-02-17 00:42:00,47.0,23.0,-100.00,NNW,328,14.0,-999.0,38,0.00,,,-99.99,0.000000,,2013-02-17 05:42:00,
2013-02-17 00:52:00,47.0,23.0,-100.00,NNW,328,14.0,-999.0,38,0.00,,,-99.99,0.000000,,2013-02-17 05:52:00,
2013-02-17 01:02:00,46.0,19.0,-100.00,NNW,328,14.0,-999.0,33,0.00,,,-99.99,0.000000,,2013-02-17 06:02:00,
2013-02-17 01:11:00,46.0,19.0,-100.00,NNW,330,12.0,-999.0,34,0.00,,,-99.99,0.000000,,2013-02-17 06:11:00,
2013-02-17 01:21:00,46.0,19.0,-100.00,NNW,330,12.0,-999.0,34,0.00,,,-99.99,0.000000,,2013-02-17 06:21:00,
2013-02-17 01:31:00,45.0,19.0,-100.00,NNW,334,11.0,-999.0,34,0.00,,,-99.99,0.000000,,2013-02-17 06:31:00,
2013-02-17 01:41:00,45.0,18.0,-100.00,NNW,335,13.0,-999.0,33,0.00,,,-99.99,0.000000,,2013-02-17 06:41:00,
2013-02-17 01:52:00,45.0,18.0,-100.00,NNW,335,13.0,-999.0,33,0.00,,,-99.99,0.000000,,2013-02-17 06:52:00,
2013-02-17 02:01:00,45.0,18.0,-100.00,NNW,333,13.0,-999.0,33,0.00,,,-99.99,0.000000,,2013-02-17 07:01:00,
2013-02-17 02:11:00,44.0,18.0,-100.00,NNW,332,11.0,-999.0,35,0.00,,,-99.99,0.000000,,2013-02-17 07:11:00,
2013-02-17 02:21:00,44.0,18.0,-100.00,NNW,332,11.0,-999.0,35,0.00,,,-99.99,0.000000,,2013-02-17 07:21:00,
2013-02-17 02:31:00,44.0,18.0,-100.00,NNW,335,12.0,-999.0,35,0.00,,,-99.99,0.000000,,2013-02-17 07:31:00,
2013-02-17 02:41:00,43.0,18.0,-100.00,NNW,335,10.0,-999.0,36,0.00,,,-99.99,0.000000,,2013-02-17 07:41:00,
2013-02-17 02:52:00,43.0,18.0,-100.00,NNW,335,10.0,-999.0,36,0.00,,,-99.99,0.000000,,2013-02-17 07:52:00,
2013-02-17 03:01:00,42.0,18.0,-100.00,NNW,334,9.0,-999.0,37,0.00,,,-99.99,0.000000,,2013-02-17 08:01:00,
2013-02-17 03:11:00,42.0,18.0,-100.00,NNW,333,9.0,-999.0,38,0.00,,,-99.99,0.000000,,2013-02-17 08:11:00,
2013-02-17 03:21:00,42.0,18.0,-100.00,NNW,333,9.0,-999.0,38,0.00,,,-99.99,0.000000,,2013-02-17 08:21:00,
2013-02-17 03:31:00,41.0,19.0,-100.00,NNW,335,7.0,-999.0,40,0.00,,,-99.99,0.000000,,2013-02-17 08:31:00,
2013-02-17 03:42:00,41.0,18.0,-100.00,NNW,343,9.0,-999.0,39,0.00,,,-99.99,0.000000,,2013-02-17 08:42:00,
2013-02-17 03:52:00,41.0,18.0,-100.00,NNW,343,9.0,-999.0,39,0.00,,,-99.99,0.000000,,2013-02-17 08:52:00,
2013-02-17 04:02:00,40.0,18.0,-100.00,NNW,342,7.0,-999.0,39,0.00,,,-99.99,0.000000,,2013-02-17 09:02:00,
2013-02-17 04:11:00,39.0,18.0,-100.00,NNW,347,5.0,-999.0,42,0.00,,,-99.99,0.000000,,2013-02-17 09:11:00,
2013-02-17 04:21:00,39.0,18.0,-100.00,NNW,347,5.0,-999.0,42,0.00,,,-99.99,0.000000,,2013-02-17 09:21:00,
2013-02-17 04:31:00,39.0,18.0,-100.00,NNW,340,4.0,-999.0,43,0.00,,,-99.99,0.000000,,2013-02-17 09:31:00,
2013-02-17 04:42:00,38.0,19.0,-100.00,NNW,344,4.0,-999.0,44,0.00,,,-99.99,0.000000,,2013-02-17 09:42:00,
2013-02-17 04:52:00,38.0,19.0,-100.00,NNW,344,4.0,-999.0,44,0.00,,,-99.99,0.000000,,2013-02-17 09:52:00,
2013-02-17 05:01:00,38.0,19.0,-100.00,NNW,345,4.0,-999.0,45,0.00,,,-99.99,0.000000,,2013-02-17 10:01:00,
2013-02-17 05:11:00,37.0,19.0,-100.00,NNW,339,4.0,-999.0,46,0.00,,,-99.99,0.000000,,2013-02-17 10:11:00,
2013-02-17 05:21:00,37.0,19.0,-100.00,NNW,339,4.0,-999.0,46,0.00,,,-99.99,0.000000,,2013-02-17 10:21:00,
2013-02-17 05:31:00,37.0,19.0,-100.00,NNW,337,6.0,-999.0,47,0.00,,,-99.99,0.000000,,2013-02-17 10:31:00,
2013-02-17 05:42:00,37.0,19.0,-100.00,NNW,338,5.0,-999.0,48,0.00,,,-99.99,0.000000,,2013-02-17 10:42:00,
2013-02-17 05:52:00,37.0,19.0,-100.00,NNW,338,5.0,-999.0,48,0.00,,,-99.99,0.000000,,2013-02-17 10:52:00,
2013-02-17 06:01:00,37.0,19.0,-100.00,NNW,337,5.0,-999.0,49,0.00,,,-99.99,0.000000,,2013-02-17 11:01:00,
2013-02-17 06:11:00,36.0,19.0,-100.00,NNW,335,5.0,-999.0,49,0.00,,,-99.99,0.000000,,2013-02-17 11:11:00,
2013-02-17 06:21:00,36.0,19.0,-100.00,NNW,335,5.0,-999.0,49,0.00,,,-99.99,0.000000,,2013-02-17 11:21:00,
2013-02-17 06:32:00,36.0,20.0,-100.00,NNW,328,4.0,-999.0,50,0.00,,,-99.99,0.000000,,2013-02-17 11:32:00,
2013-02-17 06:42:00,36.0,20.0,-100.00,NNW,333,5.0,-999.0,52,0.00,,,-99.99,0.000000,,2013-02-17 11:42:00,
2013-02-17 06:52:00,36.0,20.0,-100.00,NNW,333,5.0,-999.0,52,0.00,,,-99.99,0.000000,,2013-02-17 11:52:00,
2013-02-17 07:03:00,35.0,20.0,-100.00,NNW,336,5.0,-999.0,53,0.00,,,-99.99,0.000000,,2013-02-17 12:03:00,
2013-02-17 07:11:00,35.0,20.0,-100.00,NNW,335,5.0,-999.0,53,0.00,,,-99.99,1.300000,,2013-02-17 12:11:00,
2013-02-17 07:22:00,35.0,20.0,-100.00,NNW,335,5.0,-999.0,53,0.00,,,-99.99,1.300000,,2013-02-17 12:22:00,
2013-02-17 07:32:00,35.0,20.0,-100.00,NNW,336,6.0,-999.0,53,0.00,,,-99.99,7.000000,,2013-02-17 12:32:00,
2013-02-17 07:42:00,36.0,20.0,-100.00,NNW,340,6.0,-999.0,53,0.00,,,-99.99,15.300000,,2013-02-17 12:42:00,
2013-02-17 07:52:00,36.0,20.0,-100.00,NNW,340,6.0,-999.0,53,0.00,,,-99.99,15.300000,,2013-02-17 12:52:00,
2013-02-17 08:02:00,37.0,20.0,-100.00,NNW,347,7.0,-999.0,50,0.00,,,-99.99,33.799999,,2013-02-17 13:02:00,
2013-02-17 08:12:00,39.0,20.0,-100.00,North,349,8.0,-999.0,46,0.00,,,-99.99,78.099998,,2013-02-17 13:12:00,
2013-02-17 08:22:00,39.0,20.0,-100.00,North,349,8.0,-999.0,46,0.00,,,-99.99,78.099998,,2013-02-17 13:22:00,
2013-02-17 08:32:00,40.0,20.0,-100.00,North,353,9.0,-999.0,43,0.00,,,-99.99,137.399994,,2013-02-17 13:32:00,
2013-02-17 08:42:00,41.0,19.0,-100.00,NNW,346,9.0,-999.0,41,0.00,,,-99.99,187.600006,,2013-02-17 13:42:00,
2013-02-17 08:52:00,41.0,19.0,-100.00,NNW,346,9.0,-999.0,41,0.00,,,-99.99,187.600006,,2013-02-17 13:52:00,
2013-02-17 09:01:00,42.0,19.0,-100.00,NNW,344,11.0,-999.0,39,0.00,,,-99.99,238.199997,,2013-02-17 14:01:00,
2013-02-17 09:11:00,42.0,18.0,-100.00,NNW,344,12.0,-999.0,37,0.00,,,-99.99,290.000000,,2013-02-17 14:11:00,
2013-02-17 09:21:00,42.0,18.0,-100.00,NNW,344,12.0,-999.0,37,0.00,,,-99.99,290.000000,,2013-02-17 14:21:00,
2013-02-17 09:32:00,43.0,18.0,-100.00,NNW,343,11.0,-999.0,35,0.00,,,-99.99,342.000000,,2013-02-17 14:32:00,
2013-02-17 09:42:00,44.0,17.0,-100.00,North,355,13.0,-999.0,33,0.00,,,-99.99,393.299988,,2013-02-17 14:42:00,
2013-02-17 09:53:00,44.0,17.0,-100.00,North,355,13.0,-999.0,33,0.00,,,-99.99,393.299988,,2013-02-17 14:53:00,
2013-02-17 10:02:00,44.0,16.0,-100.00,NNW,343,12.0,-999.0,31,0.00,,,-99.99,443.299988,,2013-02-17 15:02:00,
2013-02-17 10:11:00,46.0,16.0,-100.00,NNW,343,10.0,-999.0,29,0.00,,,-99.99,491.500000,,2013-02-17 15:11:00,
2013-02-17 10:21:00,46.0,16.0,-100.00,NNW,343,10.0,-999.0,29,0.00,,,-99.99,491.500000,,2013-02-17 15:21:00,
2013-02-17 10:32:00,46.0,14.0,-100.00,NNW,344,11.0,-999.0,27,0.00,,,-99.99,537.799988,,2013-02-17 15:32:00,
2013-02-17 10:42:00,46.0,14.0,-100.00,NNW,342,11.0,-999.0,27,0.00,,,-99.99,580.700012,,2013-02-17 15:42:00,
2013-02-17 10:52:00,46.0,14.0,-100.00,NNW,342,11.0,-999.0,27,0.00,,,-99.99,580.700012,,2013-02-17 15:52:00,
2013-02-17 11:01:00,47.0,14.0,-100.00,NNW,334,13.0,-999.0,26,0.00,,,-99.99,620.200012,,2013-02-17 16:01:00,
2013-02-17 11:11:00,47.0,14.0,-100.00,NNW,335,11.0,-999.0,26,0.00,,,-99.99,657.000000,,2013-02-17 16:11:00,
2013-02-17 11:21:00,47.0,14.0,-100.00,NNW,335,11.0,-999.0,26,0.00,,,-99.99,657.000000,,2013-02-17 16:21:00,
2013-02-17 11:32:00,48.0,14.0,-100.00,North,355,11.0,-999.0,25,0.00,,,-99.99,691.599976,,2013-02-17 16:32:00,
2013-02-17 11:42:00,48.0,14.0,-100.00,NNW,340,10.0,-999.0,25,0.00,,,-99.99,722.000000,,2013-02-17 16:42:00,
2013-02-17 11:52:00,48.0,14.0,-100.00,NNW,340,10.0,-999.0,25,0.00,,,-99.99,722.000000,,2013-02-17 16:52:00,
2013-02-17 12:02:00,48.0,14.0,-100.00,NNW,342,9.0,-999.0,25,0.00,,,-99.99,746.000000,,2013-02-17 17:02:00,
2013-02-17 12:11:00,49.0,14.0,-100.00,NNW,347,10.0,-999.0,24,0.00,,,-99.99,768.000000,,2013-02-17 17:11:00,
2013-02-17 12:21:00,49.0,14.0,-100.00,NNW,347,10.0,-999.0,24,0.00,,,-99.99,768.000000,,2013-02-17 17:21:00,
2013-02-17 12:32:00,50.0,14.0,-100.00,NNW,328,10.0,-999.0,23,0.00,,,-99.99,756.000000,,2013-02-17 17:32:00,
2013-02-17 12:42:00,50.0,13.0,-100.00,NNW,343,10.0,-999.0,22,0.00,,,-99.99,795.000000,,2013-02-17 17:42:00,
2013-02-17 12:52:00,50.0,13.0,-100.00,NNW,343,10.0,-999.0,22,0.00,,,-99.99,795.000000,,2013-02-17 17:52:00,
2013-02-17 13:02:00,50.0,12.0,-100.00,NW,326,10.0,-999.0,21,0.00,,,-99.99,809.000000,,2013-02-17 18:02:00,
2013-02-17 13:11:00,51.0,12.0,-100.00,NNW,347,11.0,-999.0,20,0.00,,,-99.99,812.000000,,2013-02-17 18:11:00,
2013-02-17 13:22:00,51.0,12.0,-100.00,NNW,347,11.0,-999.0,20,0.00,,,-99.99,812.000000,,2013-02-17 18:22:00,
2013-02-17 13:33:00,52.0,11.0,-100.00,NNW,335,10.0,-999.0,19,0.00,,,-99.99,812.000000,,2013-02-17 18:33:00,
2013-02-17 13:42:00,52.0,12.0,-100.00,NNW,348,9.0,-999.0,19,0.00,,,-99.99,806.000000,,2013-02-17 18:42:00,
2013-02-17 13:52:00,52.0,12.0,-100.00,NNW,348,9.0,-999.0,19,0.00,,,-99.99,806.000000,,2013-02-17 18:52:00,
2013-02-17 14:01:00,52.0,11.0,-100.00,North,354,7.0,-999.0,18,0.00,,,-99.99,797.000000,,2013-02-17 19:01:00,
2013-02-17 14:11:00,53.0,11.0,-100.00,NNW,330,9.0,-999.0,18,0.00,,,-99.99,783.000000,,2013-02-17 19:11:00,
2013-02-17 14:21:00,53.0,11.0,-100.00,NNW,330,9.0,-999.0,18,0.00,,,-99.99,783.000000,,2013-02-17 19:21:00,
2013-02-17 14:32:00,53.0,11.0,-100.00,North,6,6.0,-999.0,18,0.00,,,-99.99,764.000000,,2013-02-17 19:32:00,
2013-02-17 14:42:00,53.0,16.0,-100.00,West,276,7.0,-999.0,23,0.00,,,-99.99,741.000000,,2013-02-17 19:42:00,
2013-02-17 14:52:00,53.0,16.0,-100.00,West,276,7.0,-999.0,23,0.00,,,-99.99,741.000000,,2013-02-17 19:52:00,
2013-02-17 15:02:00,54.0,11.0,-100.00,NW,320,6.0,-999.0,18,0.00,,,-99.99,715.000000,,2013-02-17 20:02:00,
2013-02-17 15:11:00,54.0,13.0,-100.00,NW,318,6.0,-999.0,20,0.00,,,-99.99,683.099976,,2013-02-17 20:11:00,
2013-02-17 15:22:00,54.0,13.0,-100.00,NW,318,6.0,-999.0,20,0.00,,,-99.99,683.099976,,2013-02-17 20:22:00,
2013-02-17 15:32:00,53.0,17.0,-100.00,WSW,238,6.0,-999.0,23,0.00,,,-99.99,649.400024,,2013-02-17 20:32:00,
2013-02-17 15:42:00,54.0,14.0,-100.00,WNW,303,7.0,-999.0,19,0.00,,,-99.99,611.799988,,2013-02-17 20:42:00,
2013-02-17 15:52:00,54.0,14.0,-100.00,WNW,303,7.0,-999.0,19,0.00,,,-99.99,611.799988,,2013-02-17 20:52:00,
2013-02-17 16:02:00,53.0,17.0,-100.00,West,260,7.0,-999.0,23,0.00,,,-99.99,569.700012,,2013-02-17 21:02:00,
2013-02-17 16:11:00,53.0,15.0,-100.00,West,280,9.0,-999.0,21,0.00,,,-99.99,525.400024,,2013-02-17 21:11:00,
2013-02-17 16:21:00,53.0,15.0,-100.00,West,280,9.0,-999.0,21,0.00,,,-99.99,525.400024,,2013-02-17 21:21:00,
2013-02-17 16:32:00,53.0,16.0,-100.00,WSW,244,6.0,-999.0,22,0.00,,,-99.99,477.299988,,2013-02-17 21:32:00,
2013-02-17 16:42:00,54.0,16.0,-100.00,WSW,256,6.0,-999.0,21,0.00,,,-99.99,427.000000,,2013-02-17 21:42:00,
2013-02-17 16:53:00,54.0,16.0,-100.00,WSW,256,6.0,-999.0,21,0.00,,,-99.99,427.000000,,2013-02-17 21:53:00,
2013-02-17 17:01:00,54.0,15.0,-100.00,WNW,282,7.0,-999.0,21,0.00,,,-99.99,374.299988,,2013-02-17 22:01:00,
2013-02-17 17:12:00,54.0,14.0,-100.00,WNW,294,7.0,-999.0,20,0.00,,,-99.99,319.600006,,2013-02-17 22:12:00,
2013-02-17 17:22:00,54.0,14.0,-100.00,WNW,294,7.0,-999.0,20,0.00,,,-99.99,319.600006,,2013-02-17 22:22:00,
2013-02-17 17:32:00,54.0,13.0,-100.00,NW,312,7.0,-999.0,19,0.00,,,-99.99,264.100006,,2013-02-17 22:32:00,
2013-02-17 17:42:00,53.0,13.0,-100.00,NNW,327,6.0,-999.0,19,0.00,,,-99.99,207.800003,,2013-02-17 22:42:00,
2013-02-17 17:52:00,53.0,13.0,-100.00,NNW,327,6.0,-999.0,19,0.00,,,-99.99,207.800003,,2013-02-17 22:52:00,
2013-02-17 18:02:00,53.0,13.0,-100.00,NW,312,5.0,-999.0,19,0.00,,,-99.99,151.399994,,2013-02-17 23:02:00,
2013-02-17 18:11:00,53.0,13.0,-100.00,WNW,296,3.0,-999.0,20,0.00,,,-99.99,95.400002,,2013-02-17 23:11:00,
2013-02-17 18:21:00,53.0,13.0,-100.00,WNW,296,3.0,-999.0,20,0.00,,,-99.99,95.400002,,2013-02-17 23:21:00,
2013-02-17 18:32:00,51.0,15.0,-100.00,NW,306,3.0,-999.0,23,0.00,,,-99.99,32.400002,,2013-02-17 23:32:00,
2013-02-17 18:42:00,49.0,17.0,-100.00,WNW,298,4.0,-999.0,27,0.00,,,-99.99,3.400000,,2013-02-17 23:42:00,
2013-02-17 18:52:00,49.0,17.0,-100.00,WNW,298,4.0,-999.0,27,0.00,,,-99.99,3.400000,,2013-02-17 23:52:00,
2013-02-17 19:01:00,49.0,17.0,-100.00,WNW,302,3.0,-999.0,27,0.00,,,-99.99,0.300000,,2013-02-18 00:01:00,
2013-02-17 19:12:00,48.0,16.0,-100.00,NNW,328,3.0,-999.0,28,0.00,,,-99.99,0.000000,,2013-02-18 00:12:00,
2013-02-17 19:22:00,48.0,16.0,-100.00,NNW,328,3.0,-999.0,28,0.00,,,-99.99,0.000000,,2013-02-18 00:22:00,
2013-02-17 19:32:00,45.0,19.0,-100.00,NE,43,3.0,-999.0,35,0.00,,,-99.99,0.000000,,2013-02-18 00:32:00,
2013-02-17 19:42:00,44.0,19.0,-100.00,NNE,27,4.0,-999.0,36,0.00,,,-99.99,0.000000,,2013-02-18 00:42:00,
2013-02-17 19:52:00,44.0,19.0,-100.00,NNE,27,4.0,-999.0,36,0.00,,,-99.99,0.000000,,2013-02-18 00:52:00,
2013-02-17 20:01:00,44.0,19.0,-100.00,ENE,59,4.0,-999.0,36,0.00,,,-99.99,0.000000,,2013-02-18 01:01:00,
2013-02-17 20:12:00,43.0,22.0,-100.00,East,92,3.0,-999.0,43,0.00,,,-99.99,0.000000,,2013-02-18 01:12:00,
2013-02-17 20:21:00,43.0,22.0,-100.00,East,92,3.0,-999.0,43,0.00,,,-99.99,0.000000,,2013-02-18 01:21:00,
2013-02-17 20:32:00,44.0,20.0,-100.00,East,85,3.0,-999.0,38,0.00,,,-99.99,0.000000,,2013-02-18 01:32:00,
2013-02-17 20:41:00,43.0,22.0,-100.00,East,85,2.0,-999.0,42,0.00,,,-99.99,0.000000,,2013-02-18 01:41:00,
2013-02-17 20:52:00,43.0,22.0,-100.00,East,85,2.0,-999.0,42,0.00,,,-99.99,0.000000,,2013-02-18 01:52:00,
2013-02-17 21:01:00,41.0,23.0,-100.00,East,89,2.0,-999.0,49,0.00,,,-99.99,0.000000,,2013-02-18 02:01:00,
2013-02-17 21:11:00,40.0,24.0,-100.00,East,86,2.0,-999.0,52,0.00,,,-99.99,0.000000,,2013-02-18 02:11:00,
2013-02-17 21:22:00,40.0,24.0,-100.00,East,86,2.0,-999.0,52,0.00,,,-99.99,0.000000,,2013-02-18 02:22:00,
2013-02-17 21:32:00,39.0,25.0,-100.00,East,98,2.0,-999.0,56,0.00,,,-99.99,0.000000,,2013-02-18 02:32:00,
2013-02-17 21:42:00,39.0,27.0,-100.00,ESE,112,3.0,-999.0,61,0.00,,,-99.99,0.000000,,2013-02-18 02:42:00,
2013-02-17 21:52:00,39.0,27.0,-100.00,ESE,112,3.0,-999.0,61,0.00,,,-99.99,0.000000,,2013-02-18 02:52:00,
2013-02-17 22:01:00,38.0,27.0,-100.00,ESE,114,3.0,-999.0,63,0.00,,,-99.99,0.000000,,2013-02-18 03:01:00,
2013-02-17 22:11:00,37.0,28.0,-100.00,ESE,106,2.0,-999.0,68,0.00,,,-99.99,0.000000,,2013-02-18 03:11:00,
2013-02-17 22:21:00,37.0,28.0,-100.00,ESE,106,2.0,-999.0,68,0.00,,,-99.99,0.000000,,2013-02-18 03:21:00,
2013-02-17 22:32:00,37.0,29.0,-100.00,ESE,113,2.0,-999.0,71,0.00,,,-99.99,0.000000,,2013-02-18 03:32:00,
2013-02-17 22:42:00,37.0,28.0,-100.00,ESE,104,2.0,-999.0,70,0.00,,,-99.99,0.000000,,2013-02-18 03:42:00,
2013-02-17 22:52:00,37.0,28.0,-100.00,ESE,104,2.0,-999.0,70,0.00,,,-99.99,0.000000,,2013-02-18 03:52:00,
2013-02-17 23:01:00,36.0,26.0,-100.00,East,86,2.0,-999.0,67,0.00,,,-99.99,0.000000,,2013-02-18 04:01:00,
2013-02-17 23:11:00,35.0,27.0,-100.00,ENE,71,2.0,-999.0,71,0.00,,,-99.99,0.000000,,2013-02-18 04:11:00,
2013-02-17 23:21:00,35.0,27.0,-100.00,ENE,71,2.0,-999.0,71,0.00,,,-99.99,0.000000,,2013-02-18 04:21:00,
2013-02-17 23:32:00,35.0,27.0,-100.00,East,83,5.0,-999.0,71,0.00,,,-99.99,0.000000,,2013-02-18 04:32:00,
2013-02-17 23:42:00,37.0,28.0,-100.00,East,101,4.0,-999.0,70,0.00,,,-99.99,0.000000,,2013-02-18 04:42:00,
2013-02-17 23:52:00,37.0,28.0,-100.00,East,101,4.0,-999.0,70,0.00,,,-99.99,0.000000,,2013-02-18 04:52:00,